sensor_id;sensor_type;location;lat;lon;timestamp;pressure;altitude;pressure_sealevel;temperature;humidity
63552;BME280;49698;48.072;7.800;2023-03-09T00:00:16;97295.22;;;12.38;77.61
63552;BME280;49698;48.072;7.800;2023-03-09T00:02:50;97314.59;;;12.28;78.43
63552;BME280;49698;48.072;7.800;2023-03-09T00:05:22;97349.41;;;12.21;79.02
63552;BME280;49698;48.072;7.800;2023-03-09T00:07:54;97326.22;;;12.16;79.55
63552;BME280;49698;48.072;7.800;2023-03-09T00:10:24;97335.56;;;12.07;80.44
63552;BME280;49698;48.072;7.800;2023-03-09T00:12:53;97343.16;;;11.89;82.02
63552;BME280;49698;48.072;7.800;2023-03-09T00:15:24;97333.50;;;11.75;82.46
63552;BME280;49698;48.072;7.800;2023-03-09T00:17:52;97334.06;;;11.69;82.64
63552;BME280;49698;48.072;7.800;2023-03-09T00:20:20;97337.09;;;11.67;82.67
63552;BME280;49698;48.072;7.800;2023-03-09T00:22:51;97340.81;;;11.63;83.16
63552;BME280;49698;48.072;7.800;2023-03-09T00:25:21;97358.09;;;11.62;83.55
63552;BME280;49698;48.072;7.800;2023-03-09T00:27:52;97364.56;;;11.61;83.56
63552;BME280;49698;48.072;7.800;2023-03-09T00:30:23;97343.84;;;11.61;84.16
63552;BME280;49698;48.072;7.800;2023-03-09T00:32:54;97347.66;;;11.60;84.56
63552;BME280;49698;48.072;7.800;2023-03-09T00:35:29;97345.41;;;11.62;84.36
63552;BME280;49698;48.072;7.800;2023-03-09T00:37:56;97348.31;;;11.69;84.07
63552;BME280;49698;48.072;7.800;2023-03-09T00:40:24;97334.16;;;11.72;83.89
63552;BME280;49698;48.072;7.800;2023-03-09T00:42:52;97329.66;;;11.76;83.75
63552;BME280;49698;48.072;7.800;2023-03-09T00:45:20;97348.28;;;11.82;83.03
63552;BME280;49698;48.072;7.800;2023-03-09T00:47:51;97342.00;;;11.90;82.39
63552;BME280;49698;48.072;7.800;2023-03-09T00:50:20;97345.59;;;11.94;81.78
63552;BME280;49698;48.072;7.800;2023-03-09T00:52:47;97345.34;;;11.99;81.29
63552;BME280;49698;48.072;7.800;2023-03-09T00:55:16;97350.69;;;12.11;79.85
63552;BME280;49698;48.072;7.800;2023-03-09T00:57:44;97338.66;;;12.21;78.93
63552;BME280;49698;48.072;7.800;2023-03-09T01:00:13;97318.66;;;12.22;78.84
63552;BME280;49698;48.072;7.800;2023-03-09T01:02:41;97317.53;;;12.23;78.71
63552;BME280;49698;48.072;7.800;2023-03-09T01:05:10;97307.88;;;12.22;78.33
63552;BME280;49698;48.072;7.800;2023-03-09T01:07:38;97319.78;;;12.21;78.41
63552;BME280;49698;48.072;7.800;2023-03-09T01:10:10;97308.56;;;12.19;78.64
63552;BME280;49698;48.072;7.800;2023-03-09T01:12:38;97313.53;;;12.17;78.44
63552;BME280;49698;48.072;7.800;2023-03-09T01:15:09;97321.34;;;12.22;77.97
63552;BME280;49698;48.072;7.800;2023-03-09T01:17:42;97330.41;;;12.30;76.99
63552;BME280;49698;48.072;7.800;2023-03-09T01:20:12;97326.66;;;12.34;76.64
63552;BME280;49698;48.072;7.800;2023-03-09T01:22:40;97325.63;;;12.39;75.97
63552;BME280;49698;48.072;7.800;2023-03-09T01:25:09;97325.72;;;12.42;75.66
63552;BME280;49698;48.072;7.800;2023-03-09T01:27:37;97328.53;;;12.46;75.19
63552;BME280;49698;48.072;7.800;2023-03-09T01:30:06;97335.91;;;12.49;75.44
63552;BME280;49698;48.072;7.800;2023-03-09T01:32:34;97344.78;;;12.49;75.85
63552;BME280;49698;48.072;7.800;2023-03-09T01:35:03;97325.63;;;12.39;76.27
63552;BME280;49698;48.072;7.800;2023-03-09T01:37:33;97335.00;;;12.29;76.25
63552;BME280;49698;48.072;7.800;2023-03-09T01:40:03;97336.16;;;12.28;73.86
63552;BME280;49698;48.072;7.800;2023-03-09T01:42:33;97337.97;;;12.24;74.04
63552;BME280;49698;48.072;7.800;2023-03-09T01:48:17;97344.91;;;12.25;72.16
63552;BME280;49698;48.072;7.800;2023-03-09T01:50:45;97343.25;;;12.20;72.54
63552;BME280;49698;48.072;7.800;2023-03-09T01:53:17;97337.78;;;12.17;72.80
63552;BME280;49698;48.072;7.800;2023-03-09T01:55:48;97350.78;;;12.15;73.23
63552;BME280;49698;48.072;7.800;2023-03-09T01:58:20;97337.31;;;12.15;73.92
63552;BME280;49698;48.072;7.800;2023-03-09T02:00:52;97342.19;;;12.09;74.39
63552;BME280;49698;48.072;7.800;2023-03-09T02:03:25;97342.06;;;12.06;75.10
63552;BME280;49698;48.072;7.800;2023-03-09T02:05:57;97336.59;;;12.02;75.73
63552;BME280;49698;48.072;7.800;2023-03-09T02:08:28;97366.09;;;11.98;76.47
63552;BME280;49698;48.072;7.800;2023-03-09T02:11:01;97370.84;;;11.89;76.93
63552;BME280;49698;48.072;7.800;2023-03-09T02:13:37;97374.66;;;11.76;77.68
63552;BME280;49698;48.072;7.800;2023-03-09T02:16:06;97394.19;;;11.61;79.69
63552;BME280;49698;48.072;7.800;2023-03-09T02:18:34;97400.72;;;11.47;80.60
63552;BME280;49698;48.072;7.800;2023-03-09T02:21:09;97407.66;;;11.36;81.71
63552;BME280;49698;48.072;7.800;2023-03-09T02:23:44;97419.75;;;11.30;82.74
63552;BME280;49698;48.072;7.800;2023-03-09T02:26:21;97419.53;;;11.23;83.79
63552;BME280;49698;48.072;7.800;2023-03-09T02:28:52;97440.13;;;11.19;84.63
63552;BME280;49698;48.072;7.800;2023-03-09T02:31:28;97441.13;;;11.14;84.80
63552;BME280;49698;48.072;7.800;2023-03-09T02:33:58;97441.69;;;11.08;85.15
63552;BME280;49698;48.072;7.800;2023-03-09T02:36:29;97447.75;;;11.05;85.21
63552;BME280;49698;48.072;7.800;2023-03-09T02:39:08;97460.28;;;11.00;85.00
63552;BME280;49698;48.072;7.800;2023-03-09T02:41:42;97462.72;;;10.93;84.01
63552;BME280;49698;48.072;7.800;2023-03-09T02:44:22;97463.34;;;10.78;84.13
63552;BME280;49698;48.072;7.800;2023-03-09T02:46:52;97475.28;;;10.68;83.65
63552;BME280;49698;48.072;7.800;2023-03-09T02:49:27;97459.56;;;10.58;83.85
63552;BME280;49698;48.072;7.800;2023-03-09T02:52:01;97462.34;;;10.49;83.32
63552;BME280;49698;48.072;7.800;2023-03-09T02:54:30;97454.34;;;10.41;83.27
63552;BME280;49698;48.072;7.800;2023-03-09T02:57:00;97467.63;;;10.37;82.48
63552;BME280;49698;48.072;7.800;2023-03-09T02:59:30;97477.03;;;10.31;82.34
63552;BME280;49698;48.072;7.800;2023-03-09T03:01:59;97496.00;;;10.26;82.31
63552;BME280;49698;48.072;7.800;2023-03-09T03:04:31;97499.31;;;10.23;81.86
63552;BME280;49698;48.072;7.800;2023-03-09T03:07:00;97512.47;;;10.16;82.49
63552;BME280;49698;48.072;7.800;2023-03-09T03:09:34;97514.69;;;10.14;81.69
63552;BME280;49698;48.072;7.800;2023-03-09T03:12:05;97526.09;;;10.11;81.77
63552;BME280;49698;48.072;7.800;2023-03-09T03:14:35;97533.34;;;10.10;81.36
63552;BME280;49698;48.072;7.800;2023-03-09T03:17:03;97551.03;;;10.11;81.21
63552;BME280;49698;48.072;7.800;2023-03-09T03:19:31;97572.81;;;10.10;81.30
63552;BME280;49698;48.072;7.800;2023-03-09T03:22:00;97572.81;;;10.10;80.54
63552;BME280;49698;48.072;7.800;2023-03-09T03:24:30;97571.75;;;10.11;80.46
63552;BME280;49698;48.072;7.800;2023-03-09T03:26:58;97568.38;;;10.14;80.00
63552;BME280;49698;48.072;7.800;2023-03-09T03:29:26;97563.50;;;10.16;79.19
63552;BME280;49698;48.072;7.800;2023-03-09T03:31:56;97572.66;;;10.15;79.60
63552;BME280;49698;48.072;7.800;2023-03-09T03:34:25;97584.50;;;10.14;79.08
63552;BME280;49698;48.072;7.800;2023-03-09T03:36:53;97597.28;;;10.17;79.25
63552;BME280;49698;48.072;7.800;2023-03-09T03:39:23;97614.50;;;10.16;78.89
63552;BME280;49698;48.072;7.800;2023-03-09T03:41:57;97614.50;;;10.16;78.56
63552;BME280;49698;48.072;7.800;2023-03-09T03:44:26;97616.06;;;10.17;78.54
63552;BME280;49698;48.072;7.800;2023-03-09T03:46:59;97630.59;;;10.16;78.58
63552;BME280;49698;48.072;7.800;2023-03-09T03:49:27;97623.34;;;10.16;78.47
63552;BME280;49698;48.072;7.800;2023-03-09T03:51:58;97632.16;;;10.17;78.54
63552;BME280;49698;48.072;7.800;2023-03-09T03:54:26;97635.97;;;10.16;78.39
63552;BME280;49698;48.072;7.800;2023-03-09T03:56:57;97649.41;;;10.16;78.49
63552;BME280;49698;48.072;7.800;2023-03-09T03:59:25;97655.88;;;10.15;78.68
63552;BME280;49698;48.072;7.800;2023-03-09T04:01:52;97658.56;;;10.15;78.66
63552;BME280;49698;48.072;7.800;2023-03-09T04:04:22;97668.84;;;10.13;78.82
63552;BME280;49698;48.072;7.800;2023-03-09T04:06:56;97664.88;;;10.10;78.83
63552;BME280;49698;48.072;7.800;2023-03-09T04:09:26;97676.28;;;10.07;79.27
63552;BME280;49698;48.072;7.800;2023-03-09T04:11:54;97672.34;;;10.04;79.02
63552;BME280;49698;48.072;7.800;2023-03-09T04:14:22;97682.59;;;10.02;79.45
63552;BME280;49698;48.072;7.800;2023-03-09T04:16:50;97691.31;;;9.99;79.95
63552;BME280;49698;48.072;7.800;2023-03-09T04:19:18;97702.69;;;9.96;80.23
63552;BME280;49698;48.072;7.800;2023-03-09T04:21:48;97705.22;;;9.93;80.69
63552;BME280;49698;48.072;7.800;2023-03-09T04:24:16;97714.69;;;9.90;81.24
63552;BME280;49698;48.072;7.800;2023-03-09T04:26:44;97712.63;;;9.87;81.60
63552;BME280;49698;48.072;7.800;2023-03-09T04:29:31;97713.75;;;9.86;81.81
63552;BME280;49698;48.072;7.800;2023-03-09T04:32:00;97718.66;;;9.84;82.32
63552;BME280;49698;48.072;7.800;2023-03-09T04:34:29;97718.97;;;9.83;82.59
63552;BME280;49698;48.072;7.800;2023-03-09T04:36:58;97721.97;;;9.81;82.46
63552;BME280;49698;48.072;7.800;2023-03-09T04:39:27;97724.66;;;9.81;82.93
63552;BME280;49698;48.072;7.800;2023-03-09T04:41:55;97738.69;;;9.78;83.01
63552;BME280;49698;48.072;7.800;2023-03-09T04:44:23;97737.44;;;9.75;83.54
63552;BME280;49698;48.072;7.800;2023-03-09T04:46:51;97739.16;;;9.71;84.23
63552;BME280;49698;48.072;7.800;2023-03-09T04:49:19;97743.75;;;9.71;84.11
63552;BME280;49698;48.072;7.800;2023-03-09T04:51:47;97739.50;;;9.70;84.51
63552;BME280;49698;48.072;7.800;2023-03-09T04:54:17;97749.13;;;9.71;84.27
63552;BME280;49698;48.072;7.800;2023-03-09T04:56:45;97762.88;;;9.69;84.07
63552;BME280;49698;48.072;7.800;2023-03-09T04:59:18;97771.69;;;9.70;83.96
63552;BME280;49698;48.072;7.800;2023-03-09T05:01:46;97785.13;;;9.70;83.48
63552;BME280;49698;48.072;7.800;2023-03-09T05:04:19;97781.31;;;9.71;83.48
63552;BME280;49698;48.072;7.800;2023-03-09T05:06:54;97793.66;;;9.72;83.76
63552;BME280;49698;48.072;7.800;2023-03-09T05:09:25;97786.69;;;9.71;83.30
63552;BME280;49698;48.072;7.800;2023-03-09T05:11:56;97801.22;;;9.70;83.45
63552;BME280;49698;48.072;7.800;2023-03-09T05:14:24;97798.84;;;9.68;83.62
63552;BME280;49698;48.072;7.800;2023-03-09T05:16:52;97805.78;;;9.69;84.04
63552;BME280;49698;48.072;7.800;2023-03-09T05:19:23;97808.78;;;9.68;84.24
63552;BME280;49698;48.072;7.800;2023-03-09T05:21:55;97803.41;;;9.68;85.24
63552;BME280;49698;48.072;7.800;2023-03-09T05:24:24;97820.31;;;9.68;85.79
63552;BME280;49698;48.072;7.800;2023-03-09T05:26:52;97819.50;;;9.68;85.94
63552;BME280;49698;48.072;7.800;2023-03-09T05:29:24;97822.19;;;9.68;86.23
63552;BME280;49698;48.072;7.800;2023-03-09T05:31:52;97832.91;;;9.68;86.60
63552;BME280;49698;48.072;7.800;2023-03-09T05:34:22;97840.19;;;9.67;86.71
63552;BME280;49698;48.072;7.800;2023-03-09T05:36:50;97851.69;;;9.68;86.67
63552;BME280;49698;48.072;7.800;2023-03-09T05:39:22;97855.19;;;9.68;86.70
63552;BME280;49698;48.072;7.800;2023-03-09T05:41:52;97853.28;;;9.69;86.62
63552;BME280;49698;48.072;7.800;2023-03-09T05:44:33;97862.13;;;9.69;86.57
63552;BME280;49698;48.072;7.800;2023-03-09T05:47:01;97857.06;;;9.68;86.83
63552;BME280;49698;48.072;7.800;2023-03-09T05:49:29;97861.34;;;9.69;86.40
63552;BME280;49698;48.072;7.800;2023-03-09T05:51:57;97880.91;;;9.69;86.44
63552;BME280;49698;48.072;7.800;2023-03-09T05:54:26;97877.91;;;9.71;85.94
63552;BME280;49698;48.072;7.800;2023-03-09T05:56:58;97889.13;;;9.73;85.54
63552;BME280;49698;48.072;7.800;2023-03-09T05:59:27;97885.00;;;9.75;85.53
63552;BME280;49698;48.072;7.800;2023-03-09T06:01:55;97886.91;;;9.75;84.85
63552;BME280;49698;48.072;7.800;2023-03-09T06:04:26;97887.69;;;9.75;84.72
63552;BME280;49698;48.072;7.800;2023-03-09T06:06:59;97891.19;;;9.76;84.61
63552;BME280;49698;48.072;7.800;2023-03-09T06:09:34;97895.44;;;9.77;84.32
63552;BME280;49698;48.072;7.800;2023-03-09T06:12:06;97892.94;;;9.80;84.06
63552;BME280;49698;48.072;7.800;2023-03-09T06:14:34;97909.19;;;9.84;83.74
63552;BME280;49698;48.072;7.800;2023-03-09T06:17:04;97907.75;;;9.87;83.62
63552;BME280;49698;48.072;7.800;2023-03-09T06:19:32;97904.78;;;9.88;83.88
63552;BME280;49698;48.072;7.800;2023-03-09T06:22:00;97904.16;;;9.91;83.66
63552;BME280;49698;48.072;7.800;2023-03-09T06:24:30;97909.97;;;9.93;83.25
63552;BME280;49698;48.072;7.800;2023-03-09T06:26:59;97908.25;;;9.97;83.25
63552;BME280;49698;48.072;7.800;2023-03-09T06:29:33;97909.19;;;10.01;83.61
63552;BME280;49698;48.072;7.800;2023-03-09T06:32:01;97909.69;;;10.03;83.14
63552;BME280;49698;48.072;7.800;2023-03-09T06:34:32;97912.03;;;10.05;83.50
63552;BME280;49698;48.072;7.800;2023-03-09T06:37:03;97932.56;;;10.10;82.88
63552;BME280;49698;48.072;7.800;2023-03-09T06:39:32;97933.50;;;10.14;82.34
63552;BME280;49698;48.072;7.800;2023-03-09T06:42:01;97928.13;;;10.14;82.02
63552;BME280;49698;48.072;7.800;2023-03-09T06:44:45;97940.16;;;10.16;82.18
63552;BME280;49698;48.072;7.800;2023-03-09T06:47:13;97943.63;;;10.17;81.75
63552;BME280;49698;48.072;7.800;2023-03-09T06:49:46;97954.84;;;10.19;81.46
63552;BME280;49698;48.072;7.800;2023-03-09T06:52:17;97965.28;;;10.20;81.76
63552;BME280;49698;48.072;7.800;2023-03-09T06:54:44;97980.59;;;10.20;82.43
63552;BME280;49698;48.072;7.800;2023-03-09T06:57:16;97967.97;;;10.12;83.18
63552;BME280;49698;48.072;7.800;2023-03-09T06:59:46;97975.34;;;10.06;83.31
63552;BME280;49698;48.072;7.800;2023-03-09T07:02:14;97977.41;;;10.00;83.97
63552;BME280;49698;48.072;7.800;2023-03-09T07:04:42;97968.88;;;9.98;84.00
63552;BME280;49698;48.072;7.800;2023-03-09T07:07:10;97984.50;;;9.96;84.87
63552;BME280;49698;48.072;7.800;2023-03-09T07:09:39;97988.75;;;9.97;84.16
63552;BME280;49698;48.072;7.800;2023-03-09T07:12:07;98010.72;;;9.99;84.78
63552;BME280;49698;48.072;7.800;2023-03-09T07:14:35;98027.31;;;10.01;84.37
63552;BME280;49698;48.072;7.800;2023-03-09T07:17:05;98020.38;;;10.00;84.93
63552;BME280;49698;48.072;7.800;2023-03-09T07:19:33;98012.47;;;9.95;85.19
63552;BME280;49698;48.072;7.800;2023-03-09T07:22:01;98015.28;;;9.90;85.67
63552;BME280;49698;48.072;7.800;2023-03-09T07:24:28;98022.88;;;9.88;85.90
63552;BME280;49698;48.072;7.800;2023-03-09T07:26:56;98029.00;;;9.89;85.59
63552;BME280;49698;48.072;7.800;2023-03-09T07:29:24;98034.56;;;9.92;85.29
63552;BME280;49698;48.072;7.800;2023-03-09T07:31:52;98024.44;;;9.98;84.66
63552;BME280;49698;48.072;7.800;2023-03-09T07:34:22;98030.47;;;10.03;84.20
63552;BME280;49698;48.072;7.800;2023-03-09T07:36:51;98039.50;;;10.08;83.75
63552;BME280;49698;48.072;7.800;2023-03-09T07:39:19;98038.88;;;10.11;82.95
63552;BME280;49698;48.072;7.800;2023-03-09T07:41:47;98050.56;;;10.15;82.29
63552;BME280;49698;48.072;7.800;2023-03-09T07:44:15;98051.19;;;10.20;81.59
63552;BME280;49698;48.072;7.800;2023-03-09T07:46:43;98062.31;;;10.27;80.84
63552;BME280;49698;48.072;7.800;2023-03-09T07:49:11;98054.88;;;10.33;80.23
63552;BME280;49698;48.072;7.800;2023-03-09T07:51:40;98068.78;;;10.35;80.44
63552;BME280;49698;48.072;7.800;2023-03-09T07:54:08;98082.22;;;10.35;80.75
63552;BME280;49698;48.072;7.800;2023-03-09T07:56:36;98070.38;;;10.36;80.56
63552;BME280;49698;48.072;7.800;2023-03-09T07:59:04;98084.91;;;10.35;80.82
63552;BME280;49698;48.072;7.800;2023-03-09T08:01:32;98088.72;;;10.34;80.91
63552;BME280;49698;48.072;7.800;2023-03-09T08:04:00;98093.25;;;10.34;81.56
63552;BME280;49698;48.072;7.800;2023-03-09T08:06:28;98094.09;;;10.34;81.55
63552;BME280;49698;48.072;7.800;2023-03-09T08:08:57;98096.59;;;10.39;81.64
63552;BME280;49698;48.072;7.800;2023-03-09T08:11:25;98096.16;;;10.46;81.86
63552;BME280;49698;48.072;7.800;2023-03-09T08:13:54;98110.72;;;10.53;81.63
63552;BME280;49698;48.072;7.800;2023-03-09T08:16:22;98113.69;;;10.61;81.44
63552;BME280;49698;48.072;7.800;2023-03-09T08:18:51;98113.06;;;10.64;81.07
63552;BME280;49698;48.072;7.800;2023-03-09T08:21:19;98120.84;;;10.65;81.44
63552;BME280;49698;48.072;7.800;2023-03-09T08:23:47;98121.31;;;10.67;81.12
63552;BME280;49698;48.072;7.800;2023-03-09T08:26:17;98129.69;;;10.74;80.49
63552;BME280;49698;48.072;7.800;2023-03-09T08:28:48;98125.59;;;10.77;80.22
63552;BME280;49698;48.072;7.800;2023-03-09T08:31:16;98130.81;;;10.82;79.65
63552;BME280;49698;48.072;7.800;2023-03-09T08:33:45;98139.19;;;10.89;79.02
63552;BME280;49698;48.072;7.800;2023-03-09T08:36:16;98150.75;;;10.98;78.28
63552;BME280;49698;48.072;7.800;2023-03-09T08:38:45;98153.44;;;11.07;77.47
63552;BME280;49698;48.072;7.800;2023-03-09T08:41:14;98152.66;;;11.15;77.17
63552;BME280;49698;48.072;7.800;2023-03-09T08:43:43;98152.31;;;11.25;76.10
63552;BME280;49698;48.072;7.800;2023-03-09T08:46:11;98157.22;;;11.58;75.20
63552;BME280;49698;48.072;7.800;2023-03-09T08:48:40;98166.78;;;12.03;73.64
63552;BME280;49698;48.072;7.800;2023-03-09T08:51:09;98163.16;;;12.37;71.93
63552;BME280;49698;48.072;7.800;2023-03-09T08:53:37;98176.56;;;12.45;71.31
63552;BME280;49698;48.072;7.800;2023-03-09T08:56:08;98167.84;;;12.48;70.47
63552;BME280;49698;48.072;7.800;2023-03-09T08:58:37;98168.69;;;12.40;70.25
63552;BME280;49698;48.072;7.800;2023-03-09T09:01:08;98167.91;;;12.31;69.79
63552;BME280;49698;48.072;7.800;2023-03-09T09:03:36;98185.41;;;12.25;70.02
63552;BME280;49698;48.072;7.800;2023-03-09T09:06:06;98192.50;;;12.30;69.66
63552;BME280;49698;48.072;7.800;2023-03-09T09:08:35;98193.28;;;12.30;69.54
63552;BME280;49698;48.072;7.800;2023-03-09T09:11:07;98208.06;;;12.24;70.03
63552;BME280;49698;48.072;7.800;2023-03-09T09:13:35;98200.78;;;12.24;70.66
63552;BME280;49698;48.072;7.800;2023-03-09T09:16:06;98218.16;;;12.36;70.43
63552;BME280;49698;48.072;7.800;2023-03-09T09:18:35;98227.78;;;12.45;69.89
63552;BME280;49698;48.072;7.800;2023-03-09T09:21:10;98230.81;;;12.44;69.67
63552;BME280;49698;48.072;7.800;2023-03-09T09:23:39;98229.09;;;12.39;69.79
63552;BME280;49698;48.072;7.800;2023-03-09T09:26:09;98239.72;;;12.36;69.42
63552;BME280;49698;48.072;7.800;2023-03-09T09:28:38;98238.59;;;12.37;69.18
63552;BME280;49698;48.072;7.800;2023-03-09T09:31:11;98237.81;;;12.36;68.61
63552;BME280;49698;48.072;7.800;2023-03-09T09:33:43;98247.47;;;12.37;68.45
63552;BME280;49698;48.072;7.800;2023-03-09T09:36:13;98244.78;;;12.37;67.97
63552;BME280;49698;48.072;7.800;2023-03-09T09:38:42;98244.44;;;12.39;67.89
63552;BME280;49698;48.072;7.800;2023-03-09T09:41:16;98234.94;;;12.41;67.39
63552;BME280;49698;48.072;7.800;2023-03-09T09:43:46;98225.28;;;12.40;67.52
63552;BME280;49698;48.072;7.800;2023-03-09T09:46:19;98221.16;;;12.34;67.90
63552;BME280;49698;48.072;7.800;2023-03-09T09:48:48;98222.63;;;12.32;68.18
63552;BME280;49698;48.072;7.800;2023-03-09T09:51:32;98212.00;;;12.35;67.87
63552;BME280;49698;48.072;7.800;2023-03-09T09:54:13;98216.56;;;12.43;67.63
63552;BME280;49698;48.072;7.800;2023-03-09T09:56:47;98227.28;;;12.52;67.41
63552;BME280;49698;48.072;7.800;2023-03-09T09:59:19;98222.34;;;12.63;66.98
63552;BME280;49698;48.072;7.800;2023-03-09T10:01:58;98219.25;;;12.73;66.52
63552;BME280;49698;48.072;7.800;2023-03-09T10:04:33;98237.75;;;12.83;66.12
63552;BME280;49698;48.072;7.800;2023-03-09T10:07:12;98221.38;;;12.88;65.64
63552;BME280;49698;48.072;7.800;2023-03-09T10:09:43;98222.13;;;12.97;65.34
63552;BME280;49698;48.072;7.800;2023-03-09T10:12:18;98228.25;;;13.07;64.82
63552;BME280;49698;48.072;7.800;2023-03-09T10:14:50;98221.75;;;13.08;64.25
63552;BME280;49698;48.072;7.800;2023-03-09T10:17:25;98230.84;;;13.24;63.63
63552;BME280;49698;48.072;7.800;2023-03-09T10:19:58;98211.84;;;13.41;62.78
63552;BME280;49698;48.072;7.800;2023-03-09T10:22:30;98218.88;;;13.55;62.57
63552;BME280;49698;48.072;7.800;2023-03-09T10:24:58;98213.28;;;13.60;62.16
63552;BME280;49698;48.072;7.800;2023-03-09T10:27:31;98216.63;;;13.57;62.21
63552;BME280;49698;48.072;7.800;2023-03-09T10:30:06;98220.22;;;13.49;62.51
63552;BME280;49698;48.072;7.800;2023-03-09T10:32:46;98222.13;;;13.48;62.46
63552;BME280;49698;48.072;7.800;2023-03-09T10:35:20;98224.47;;;13.50;62.25
63552;BME280;49698;48.072;7.800;2023-03-09T10:37:50;98210.97;;;13.50;62.46
63552;BME280;49698;48.072;7.800;2023-03-09T10:40:21;98217.41;;;13.57;61.63
63552;BME280;49698;48.072;7.800;2023-03-09T10:42:49;98226.53;;;13.53;62.13
63552;BME280;49698;48.072;7.800;2023-03-09T10:45:25;98223.16;;;13.56;62.26
63552;BME280;49698;48.072;7.800;2023-03-09T10:47:57;98237.09;;;13.58;62.10
63552;BME280;49698;48.072;7.800;2023-03-09T10:50:28;98235.06;;;13.55;61.65
63552;BME280;49698;48.072;7.800;2023-03-09T10:52:57;98240.47;;;13.55;61.75
63552;BME280;49698;48.072;7.800;2023-03-09T10:55:34;98224.53;;;13.62;61.92
63552;BME280;49698;48.072;7.800;2023-03-09T10:58:14;98226.03;;;13.72;61.82
63552;BME280;49698;48.072;7.800;2023-03-09T11:00:55;98229.34;;;13.89;61.36
63552;BME280;49698;48.072;7.800;2023-03-09T11:03:30;98229.00;;;14.24;60.47
63552;BME280;49698;48.072;7.800;2023-03-09T11:06:21;98232.56;;;14.49;60.11
63552;BME280;49698;48.072;7.800;2023-03-09T11:08:55;98237.06;;;14.57;59.35
63552;BME280;49698;48.072;7.800;2023-03-09T11:11:40;98232.69;;;14.53;59.23
63552;BME280;49698;48.072;7.800;2023-03-09T11:14:23;98232.00;;;14.68;58.99
63552;BME280;49698;48.072;7.800;2023-03-09T11:16:54;98243.03;;;15.00;58.07
63552;BME280;49698;48.072;7.800;2023-03-09T11:19:24;98243.16;;;15.03;58.08
63552;BME280;49698;48.072;7.800;2023-03-09T11:21:59;98242.81;;;14.92;58.43
63552;BME280;49698;48.072;7.800;2023-03-09T11:24:31;98252.19;;;14.95;58.67
63552;BME280;49698;48.072;7.800;2023-03-09T11:27:05;98242.91;;;14.96;58.57
63552;BME280;49698;48.072;7.800;2023-03-09T11:29:36;98248.78;;;15.10;58.49
63552;BME280;49698;48.072;7.800;2023-03-09T11:32:07;98244.91;;;15.24;57.97
63552;BME280;49698;48.072;7.800;2023-03-09T11:34:40;98239.84;;;15.22;57.64
63552;BME280;49698;48.072;7.800;2023-03-09T11:37:13;98247.66;;;15.11;58.14
63552;BME280;49698;48.072;7.800;2023-03-09T11:39:47;98243.00;;;15.12;57.54
63552;BME280;49698;48.072;7.800;2023-03-09T11:42:24;98239.88;;;14.98;57.82
63552;BME280;49698;48.072;7.800;2023-03-09T11:44:56;98245.53;;;14.80;58.63
63552;BME280;49698;48.072;7.800;2023-03-09T11:47:29;98245.28;;;14.73;59.01
63552;BME280;49698;48.072;7.800;2023-03-09T11:50:04;98237.66;;;14.75;59.30
63552;BME280;49698;48.072;7.800;2023-03-09T11:52:36;98221.72;;;14.86;59.24
63552;BME280;49698;48.072;7.800;2023-03-09T11:55:11;98219.47;;;15.00;59.02
63552;BME280;49698;48.072;7.800;2023-03-09T11:57:43;98226.56;;;14.92;59.21
63552;BME280;49698;48.072;7.800;2023-03-09T12:00:17;98223.88;;;14.80;59.66
63552;BME280;49698;48.072;7.800;2023-03-09T12:02:53;98213.47;;;14.46;60.50
63552;BME280;49698;48.072;7.800;2023-03-09T12:05:27;98215.72;;;14.31;61.33
63552;BME280;49698;48.072;7.800;2023-03-09T12:08:02;98205.34;;;14.21;61.72
63552;BME280;49698;48.072;7.800;2023-03-09T12:10:34;98213.63;;;14.04;62.86
63552;BME280;49698;48.072;7.800;2023-03-09T12:13:10;98211.13;;;13.86;63.38
63552;BME280;49698;48.072;7.800;2023-03-09T12:15:48;98199.59;;;13.77;64.10
63552;BME280;49698;48.072;7.800;2023-03-09T12:18:20;98199.84;;;13.84;64.03
63552;BME280;49698;48.072;7.800;2023-03-09T12:20:52;98195.41;;;14.13;63.38
63552;BME280;49698;48.072;7.800;2023-03-09T12:23:47;98182.38;;;14.15;62.97
63552;BME280;49698;48.072;7.800;2023-03-09T12:26:21;98177.38;;;14.05;63.14
63552;BME280;49698;48.072;7.800;2023-03-09T12:29:04;98173.13;;;14.04;63.27
63552;BME280;49698;48.072;7.800;2023-03-09T12:31:35;98167.16;;;13.98;63.45
63552;BME280;49698;48.072;7.800;2023-03-09T12:34:21;98182.31;;;13.90;63.71
63552;BME280;49698;48.072;7.800;2023-03-09T12:36:51;98186.25;;;13.93;64.00
63552;BME280;49698;48.072;7.800;2023-03-09T12:39:41;98178.28;;;13.97;63.36
63552;BME280;49698;48.072;7.800;2023-03-09T12:42:35;98178.53;;;14.16;61.65
63552;BME280;49698;48.072;7.800;2023-03-09T12:45:21;98171.69;;;14.18;60.57
63552;BME280;49698;48.072;7.800;2023-03-09T12:47:51;98174.25;;;14.15;59.92
63552;BME280;49698;48.072;7.800;2023-03-09T12:50:24;98177.41;;;14.17;59.61
63552;BME280;49698;48.072;7.800;2023-03-09T12:53:01;98176.28;;;14.18;59.29
63552;BME280;49698;48.072;7.800;2023-03-09T12:55:44;98185.19;;;14.18;59.42
63552;BME280;49698;48.072;7.800;2023-03-09T12:58:28;98174.94;;;14.24;59.54
63552;BME280;49698;48.072;7.800;2023-03-09T13:01:03;98162.34;;;14.40;59.54
63552;BME280;49698;48.072;7.800;2023-03-09T13:03:34;98163.03;;;14.62;59.26
63552;BME280;49698;48.072;7.800;2023-03-09T13:06:06;98156.16;;;14.77;59.12
63552;BME280;49698;48.072;7.800;2023-03-09T13:08:52;98148.34;;;14.87;58.60
63552;BME280;49698;48.072;7.800;2023-03-09T13:11:30;98138.19;;;14.97;58.61
63552;BME280;49698;48.072;7.800;2023-03-09T13:14:00;98139.97;;;15.05;58.64
63552;BME280;49698;48.072;7.800;2023-03-09T13:19:47;98139.25;;;15.64;55.57
63552;BME280;49698;48.072;7.800;2023-03-09T13:22:29;98136.25;;;15.65;55.06
63552;BME280;49698;48.072;7.800;2023-03-09T13:25:16;98131.41;;;15.59;54.54
63552;BME280;49698;48.072;7.800;2023-03-09T13:27:49;98131.56;;;15.50;54.09
63552;BME280;49698;48.072;7.800;2023-03-09T13:30:20;98122.09;;;15.44;53.56